Time;durP1;ratioP1;P1;durP2;ratioP2;P2;SDS_P1;SDS_P2;PMS_P1;PMS_P2;Temp;Humidity;BMP_temperature;BMP_pressure;BME280_temperature;BME280_humidity;BME280_pressure;Samples;Min_cycle;Max_cycle;Signal;HPM_P1;HPM_P2
2024/02/13 00:01:56;;;;;;;8.50;5.20;;;7.30;99.90;;;;;;5030255;28;20424;-69
2024/02/13 00:04:21;;;;;;;7.70;4.93;;;7.30;99.90;;;;;;5032145;28;20225;-66
2024/02/13 00:06:47;;;;;;;9.37;5.43;;;7.30;99.90;;;;;;5030828;28;20229;-68
2024/02/13 00:09:13;;;;;;;8.00;5.30;;;7.30;99.90;;;;;;5033304;28;20273;-68
2024/02/13 00:11:40;;;;;;;9.83;5.57;;;7.20;99.90;;;;;;5030851;28;20269;-68
2024/02/13 00:14:07;;;;;;;9.73;5.40;;;7.30;99.90;;;;;;5032827;28;20428;-71
2024/02/13 00:16:38;;;;;;;9.20;5.00;;;7.20;99.90;;;;;;5030925;28;20425;-67
2024/02/13 00:19:06;;;;;;;7.13;5.27;;;7.20;99.90;;;;;;5031795;28;20434;-70
2024/02/13 00:21:33;;;;;;;12.47;6.47;;;7.20;99.90;;;;;;5030886;28;20794;-64
2024/02/13 00:23:59;;;;;;;9.53;5.60;;;7.20;99.90;;;;;;5033303;28;20495;-72
2024/02/13 00:26:25;;;;;;;10.20;5.80;;;7.20;99.90;;;;;;5030483;28;20804;-67
2024/02/13 00:28:51;;;;;;;12.00;6.00;;;7.20;99.90;;;;;;5030304;28;20428;-68
2024/02/13 00:31:17;;;;;;;8.90;5.23;;;7.20;99.90;;;;;;5031564;28;20445;-67
2024/02/13 00:33:43;;;;;;;12.40;7.30;;;7.20;99.90;;;;;;5031158;28;20428;-69
2024/02/13 00:36:09;;;;;;;13.10;7.10;;;7.10;99.90;;;;;;5030510;28;20519;-71
2024/02/13 00:38:35;;;;;;;8.77;6.60;;;7.20;99.90;;;;;;5030749;28;20453;-73
2024/02/13 00:41:04;;;;;;;13.33;7.23;;;7.10;99.90;;;;;;5031113;28;20698;-68
2024/02/13 00:43:31;;;;;;;8.60;6.63;;;7.10;99.90;;;;;;5030993;28;20413;-69
2024/02/13 00:45:59;;;;;;;11.57;6.63;;;7.10;99.90;;;;;;5031346;28;20429;-70
2024/02/13 00:48:26;;;;;;;13.83;8.77;;;7.10;99.90;;;;;;5031101;28;20424;-74
2024/02/13 00:50:52;;;;;;;12.63;8.17;;;7.10;99.90;;;;;;5030351;28;20476;-74
2024/02/13 00:53:18;;;;;;;11.13;7.53;;;7.10;99.90;;;;;;5031385;28;20527;-69
2024/02/13 00:55:45;;;;;;;13.63;7.83;;;7.20;99.90;;;;;;5030772;28;20182;-67
2024/02/13 00:58:11;;;;;;;11.73;7.20;;;7.20;99.90;;;;;;5031347;28;20995;-70
2024/02/13 01:00:40;;;;;;;13.97;8.07;;;7.20;99.90;;;;;;5030386;28;20431;-69
2024/02/13 01:03:06;;;;;;;12.50;8.60;;;7.20;99.90;;;;;;5031089;28;20448;-71
2024/02/13 01:05:32;;;;;;;13.47;7.30;;;7.20;99.90;;;;;;5030741;28;20476;-68
2024/02/13 01:07:58;;;;;;;11.30;7.43;;;7.20;99.90;;;;;;5030954;28;20429;-71
2024/02/13 01:10:24;;;;;;;12.97;8.10;;;7.20;99.90;;;;;;5030856;28;20516;-74
2024/02/13 01:12:50;;;;;;;11.20;7.93;;;7.20;99.90;;;;;;5031050;28;20196;-71
2024/02/13 01:15:16;;;;;;;13.30;8.37;;;7.20;99.90;;;;;;5029360;28;20433;-73
2024/02/13 01:17:42;;;;;;;11.30;7.70;;;7.20;99.90;;;;;;5030139;28;20425;-70
2024/02/13 01:20:11;;;;;;;20.40;8.53;;;7.20;99.90;;;;;;5030943;28;20516;-71
2024/02/13 01:22:42;;;;;;;14.53;9.33;;;7.20;99.90;;;;;;5031126;28;20432;-67
2024/02/13 01:25:10;;;;;;;11.57;8.27;;;7.20;99.90;;;;;;5030386;28;20476;-72
2024/02/13 01:27:38;;;;;;;11.63;9.03;;;7.20;99.90;;;;;;5030434;28;20436;-72
2024/02/13 01:30:04;;;;;;;15.03;9.57;;;7.20;99.90;;;;;;5031076;28;20448;-73
2024/02/13 01:32:31;;;;;;;11.17;9.07;;;7.10;99.90;;;;;;5032106;28;20527;-68
2024/02/13 01:34:57;;;;;;;18.00;8.83;;;7.10;99.90;;;;;;5030887;28;20962;-73
2024/02/13 01:37:23;;;;;;;14.97;8.73;;;7.10;99.90;;;;;;5030568;28;20429;-68
2024/02/13 01:39:48;;;;;;;12.33;8.40;;;7.10;99.90;;;;;;5031843;28;20192;-64
2024/02/13 01:42:14;;;;;;;14.27;8.67;;;7.00;99.90;;;;;;5030795;28;20194;-69
2024/02/13 01:44:40;;;;;;;13.90;9.80;;;7.00;99.90;;;;;;5032070;28;20767;-66
2024/02/13 01:47:07;;;;;;;14.97;9.67;;;7.00;99.90;;;;;;5029243;28;20255;-69
2024/02/13 01:49:33;;;;;;;12.33;9.23;;;7.00;99.90;;;;;;5031848;28;20187;-67
2024/02/13 01:52:00;;;;;;;16.77;10.47;;;7.00;99.90;;;;;;5030919;28;20423;-67
2024/02/13 01:54:26;;;;;;;14.90;8.80;;;7.00;99.90;;;;;;5030747;28;20515;-70
2024/02/13 01:56:54;;;;;;;14.50;9.67;;;6.90;99.90;;;;;;5030767;28;20472;-68
2024/02/13 01:59:22;;;;;;;14.60;9.10;;;7.00;99.90;;;;;;5031296;28;21060;-72
2024/02/13 02:01:48;;;;;;;14.37;8.93;;;6.90;99.90;;;;;;5030184;28;20432;-66
2024/02/13 02:04:14;;;;;;;13.10;9.27;;;6.90;99.90;;;;;;5031032;28;20471;-71
2024/02/13 02:06:42;;;;;;;16.83;10.77;;;6.90;99.90;;;;;;5031711;28;20543;-70
2024/02/13 02:09:08;;;;;;;15.00;10.00;;;6.90;99.90;;;;;;5031205;28;21104;-71
2024/02/13 02:11:34;;;;;;;14.23;10.23;;;6.90;99.90;;;;;;5030811;28;20429;-66
2024/02/13 02:14:00;;;;;;;17.40;10.00;;;6.90;99.90;;;;;;5031402;28;20196;-70
2024/02/13 02:16:27;;;;;;;16.37;9.87;;;6.90;99.90;;;;;;5029886;28;20433;-65
2024/02/13 02:18:54;;;;;;;13.63;9.63;;;6.80;99.90;;;;;;5030740;28;20431;-68
2024/02/13 02:21:20;;;;;;;13.53;9.07;;;6.90;99.90;;;;;;5030549;28;20475;-74
2024/02/13 02:23:46;;;;;;;13.13;9.90;;;6.80;99.90;;;;;;5028236;28;21260;-70
2024/02/13 02:26:12;;;;;;;19.30;11.17;;;6.80;99.90;;;;;;5030560;28;20853;-71
2024/02/13 02:28:38;;;;;;;15.70;9.70;;;6.80;99.90;;;;;;5029647;28;20699;-68
2024/02/13 02:31:04;;;;;;;12.73;10.00;;;6.80;99.90;;;;;;5030310;28;20437;-73
2024/02/13 02:33:30;;;;;;;19.10;10.33;;;6.80;99.90;;;;;;5030572;28;20195;-68
2024/02/13 02:35:56;;;;;;;17.73;11.90;;;6.80;99.90;;;;;;5029291;28;20194;-71
2024/02/13 02:38:21;;;;;;;14.77;10.90;;;6.80;99.90;;;;;;5028072;28;20923;-69
2024/02/13 02:40:50;;;;;;;14.03;9.90;;;6.70;99.90;;;;;;5030269;28;20186;-69
2024/02/13 02:43:15;;;;;;;17.13;10.87;;;6.70;99.90;;;;;;5030318;28;20214;-68
2024/02/13 02:45:41;;;;;;;12.27;10.47;;;6.70;99.90;;;;;;5029751;28;20469;-67
2024/02/13 02:48:07;;;;;;;13.60;11.00;;;6.60;99.90;;;;;;5029365;28;20207;-71
2024/02/13 02:50:34;;;;;;;20.50;12.13;;;6.60;99.90;;;;;;5030089;28;22961;-67
2024/02/13 02:53:00;;;;;;;13.70;10.43;;;6.60;99.90;;;;;;5062041;28;20526;-73
2024/02/13 02:55:26;;;;;;;14.07;11.60;;;6.50;99.90;;;;;;5029109;28;20815;-71
2024/02/13 02:57:52;;;;;;;15.53;11.20;;;6.50;99.90;;;;;;5032181;28;20429;-70
2024/02/13 03:00:20;;;;;;;17.00;11.67;;;6.50;99.90;;;;;;5034408;28;20433;-71
2024/02/13 03:02:46;;;;;;;17.13;10.40;;;6.50;99.90;;;;;;5034257;28;20957;-68
2024/02/13 03:05:12;;;;;;;18.00;11.97;;;6.60;99.90;;;;;;5033571;28;20473;-68
2024/02/13 03:07:38;;;;;;;14.97;11.60;;;6.50;99.90;;;;;;5033962;28;20424;-70
2024/02/13 03:10:10;;;;;;;17.50;11.37;;;6.50;99.90;;;;;;5034465;28;20523;-66
2024/02/13 03:12:36;;;;;;;19.97;12.37;;;6.50;99.90;;;;;;5034388;28;20703;-72
2024/02/13 03:15:02;;;;;;;14.40;11.00;;;6.60;99.90;;;;;;5033991;28;20428;-68
2024/02/13 03:17:28;;;;;;;16.63;11.90;;;6.50;99.90;;;;;;5034180;28;20451;-67
2024/02/13 03:19:53;;;;;;;14.33;12.00;;;6.50;99.90;;;;;;5034289;28;20429;-71
2024/02/13 03:22:22;;;;;;;19.20;11.50;;;6.50;99.90;;;;;;5033793;28;20739;-70
2024/02/13 03:24:48;;;;;;;16.67;12.03;;;6.50;99.90;;;;;;5033793;28;20213;-66
2024/02/13 03:27:15;;;;;;;16.33;11.43;;;6.50;99.90;;;;;;5031627;28;20490;-68
2024/02/13 03:29:41;;;;;;;16.90;11.90;;;6.50;99.90;;;;;;5033310;28;20428;-73
2024/02/13 03:32:07;;;;;;;13.97;10.93;;;6.50;99.90;;;;;;5032305;28;20435;-71
2024/02/13 03:34:32;;;;;;;13.50;11.10;;;6.40;99.90;;;;;;5034942;28;20425;-72
2024/02/13 03:36:58;;;;;;;15.37;11.70;;;6.40;99.90;;;;;;5033854;28;20208;-70
2024/02/13 03:39:24;;;;;;;14.33;11.70;;;6.40;99.90;;;;;;5032499;28;20854;-72
2024/02/13 03:41:50;;;;;;;16.93;12.10;;;6.40;99.90;;;;;;5033714;28;20466;-66
2024/02/13 03:44:16;;;;;;;18.30;12.20;;;6.40;99.90;;;;;;5033331;28;20507;-68
2024/02/13 03:46:42;;;;;;;16.43;11.53;;;6.40;99.90;;;;;;5032921;28;20456;-70
2024/02/13 03:49:08;;;;;;;14.40;11.50;;;6.40;99.90;;;;;;5031796;28;20182;-71
2024/02/13 03:51:40;;;;;;;19.17;12.87;;;6.40;99.90;;;;;;5033696;28;20429;-69
2024/02/13 03:54:07;;;;;;;17.33;12.47;;;6.40;99.90;;;;;;5033482;28;20433;-70
2024/02/13 03:56:34;;;;;;;14.20;10.80;;;6.40;99.90;;;;;;5032807;28;20440;-67
2024/02/13 03:58:59;;;;;;;16.40;12.60;;;6.30;99.90;;;;;;5033443;28;20964;-68
2024/02/13 04:01:26;;;;;;;19.17;12.93;;;6.30;99.90;;;;;;5032774;28;20433;-69
2024/02/13 04:03:52;;;;;;;15.77;12.13;;;6.30;99.90;;;;;;5034153;28;20777;-68
2024/02/13 04:06:17;;;;;;;19.40;11.97;;;6.30;99.90;;;;;;5031275;28;20429;-67
2024/02/13 04:08:44;;;;;;;14.40;11.67;;;6.30;99.90;;;;;;5033393;28;20463;-67
2024/02/13 04:11:10;;;;;;;15.40;12.90;;;6.30;99.90;;;;;;5032359;28;20947;-70
2024/02/13 04:13:36;;;;;;;14.20;12.23;;;6.20;99.90;;;;;;5033557;28;20421;-72
2024/02/13 04:16:02;;;;;;;15.40;12.20;;;6.30;99.90;;;;;;5033472;28;20506;-71
2024/02/13 04:18:27;;;;;;;15.60;12.90;;;6.20;99.90;;;;;;5032621;28;20189;-70
2024/02/13 04:20:53;;;;;;;17.47;12.20;;;6.20;99.90;;;;;;5033594;28;20190;-68
2024/02/13 04:23:19;;;;;;;16.50;12.00;;;6.20;99.90;;;;;;5032379;28;20222;-71
2024/02/13 04:25:45;;;;;;;18.63;12.43;;;6.20;99.90;;;;;;5033363;28;20890;-68
2024/02/13 04:28:11;;;;;;;15.70;12.03;;;6.30;99.90;;;;;;5030158;28;20671;-67
2024/02/13 04:30:40;;;;;;;17.07;11.83;;;6.30;99.90;;;;;;5031816;28;20260;-68
2024/02/13 04:33:09;;;;;;;15.43;12.53;;;6.30;99.90;;;;;;5032789;28;20903;-69
2024/02/13 04:35:35;;;;;;;18.13;13.00;;;6.30;99.90;;;;;;5032647;28;20783;-72
2024/02/13 04:38:03;;;;;;;15.90;13.00;;;6.40;99.90;;;;;;5033390;28;20793;-70
2024/02/13 04:40:29;;;;;;;15.93;12.47;;;6.40;99.90;;;;;;5031962;28;20809;-65
2024/02/13 04:42:54;;;;;;;16.73;13.30;;;6.30;99.90;;;;;;5033851;28;20433;-69
2024/02/13 04:45:23;;;;;;;15.37;11.83;;;6.40;99.90;;;;;;5031993;28;20570;-67
2024/02/13 04:47:48;;;;;;;19.03;13.90;;;6.40;99.90;;;;;;5032120;28;20346;-70
2024/02/13 04:50:14;;;;;;;16.50;12.60;;;6.40;99.90;;;;;;5031970;28;20531;-67
2024/02/13 04:52:40;;;;;;;16.00;13.00;;;6.40;99.90;;;;;;5032804;28;20242;-67
2024/02/13 04:55:06;;;;;;;17.83;13.07;;;6.40;99.90;;;;;;5032637;28;20194;-67
2024/02/13 04:57:33;;;;;;;18.17;13.50;;;6.40;99.90;;;;;;5032065;28;20544;-66
2024/02/13 05:00:02;;;;;;;15.43;12.77;;;6.40;99.90;;;;;;5032497;28;20428;-70
2024/02/13 05:02:32;;;;;;;18.70;13.00;;;6.40;99.90;;;;;;5031232;28;20919;-70
2024/02/13 05:07:44;;;;;;;16.50;12.33;;;6.30;99.90;;;;;;5031884;28;20865;-69
2024/02/13 05:10:12;;;;;;;20.73;13.07;;;6.40;99.90;;;;;;5032196;28;20952;-71
2024/02/13 05:12:42;;;;;;;14.13;11.63;;;6.30;99.90;;;;;;5031835;28;20425;-67
2024/02/13 05:15:08;;;;;;;14.73;12.23;;;6.30;99.90;;;;;;5032603;28;20452;-68
2024/02/13 05:17:35;;;;;;;16.20;12.50;;;6.40;99.90;;;;;;5030736;28;21016;-70
2024/02/13 05:20:01;;;;;;;14.00;11.20;;;6.30;99.90;;;;;;5032320;28;20424;-66
2024/02/13 05:22:26;;;;;;;14.70;10.97;;;6.30;99.90;;;;;;5030085;28;20524;-71
2024/02/13 05:24:52;;;;;;;16.13;11.57;;;6.30;99.90;;;;;;5032831;28;20816;-70
2024/02/13 05:27:18;;;;;;;14.43;11.40;;;6.30;99.90;;;;;;5030808;28;20290;-64
2024/02/13 05:29:44;;;;;;;17.77;11.40;;;6.30;99.90;;;;;;5030204;28;20197;-72
2024/02/13 05:32:10;;;;;;;15.03;11.47;;;6.30;99.90;;;;;;5015395;28;20436;-71
2024/02/13 05:34:36;;;;;;;19.37;11.83;;;6.30;99.90;;;;;;5031500;28;20285;-66
2024/02/13 05:37:02;;;;;;;15.10;11.67;;;6.30;99.90;;;;;;5032075;28;20865;-70
2024/02/13 05:39:29;;;;;;;14.80;10.97;;;6.30;99.90;;;;;;5028985;28;20451;-68
2024/02/13 05:41:55;;;;;;;17.90;11.20;;;6.20;99.90;;;;;;5029481;28;20448;-72
2024/02/13 05:44:27;;;;;;;14.27;10.00;;;6.30;99.90;;;;;;5026434;28;20518;-69
2024/02/13 05:46:55;;;;;;;17.77;10.10;;;6.20;99.90;;;;;;5030876;28;20482;-70
2024/02/13 05:49:21;;;;;;;15.37;11.07;;;6.30;99.90;;;;;;5028108;28;20492;-66
2024/02/13 05:51:46;;;;;;;14.07;10.20;;;6.20;99.90;;;;;;5024404;28;20532;-66
2024/02/13 05:54:13;;;;;;;16.30;10.37;;;6.20;99.90;;;;;;5030480;28;20437;-69
2024/02/13 05:56:39;;;;;;;14.30;9.50;;;6.20;99.90;;;;;;5029763;28;20569;-67
2024/02/13 05:59:05;;;;;;;12.97;9.17;;;6.20;99.90;;;;;;5030899;28;20486;-68
2024/02/13 06:01:31;;;;;;;13.40;8.87;;;6.20;99.90;;;;;;5031570;28;20192;-73
2024/02/13 06:04:01;;;;;;;18.23;9.50;;;6.30;99.90;;;;;;5030921;28;21169;-66
2024/02/13 06:06:27;;;;;;;14.13;9.70;;;6.30;99.90;;;;;;5029327;28;20533;-70
2024/02/13 06:08:54;;;;;;;16.07;9.70;;;6.30;99.90;;;;;;5031027;28;20455;-68
2024/02/13 06:11:20;;;;;;;12.00;9.20;;;6.30;99.90;;;;;;5030180;28;20459;-71
2024/02/13 06:13:49;;;;;;;10.67;8.00;;;6.20;99.90;;;;;;5031720;28;21043;-67
2024/02/13 06:16:17;;;;;;;11.83;8.87;;;6.20;99.90;;;;;;5028144;28;20460;-70
2024/02/13 06:18:46;;;;;;;12.97;8.80;;;6.30;99.90;;;;;;5031472;28;20424;-68
2024/02/13 06:21:13;;;;;;;14.23;8.67;;;6.20;99.90;;;;;;5031307;28;20444;-71
2024/02/13 06:23:41;;;;;;;12.77;8.53;;;6.20;99.90;;;;;;5031095;28;20832;-67
2024/02/13 06:26:08;;;;;;;14.53;8.50;;;6.20;99.90;;;;;;5031047;28;20444;-72
2024/02/13 06:28:33;;;;;;;17.30;10.50;;;6.30;99.90;;;;;;5029251;28;21056;-72
2024/02/13 06:30:59;;;;;;;13.30;8.30;;;6.20;99.90;;;;;;5030726;28;20451;-67
2024/02/13 06:33:25;;;;;;;14.40;8.57;;;6.20;99.90;;;;;;5030868;28;20185;-67
2024/02/13 06:35:51;;;;;;;13.00;7.80;;;6.20;99.90;;;;;;5030591;28;20923;-70
2024/02/13 06:38:16;;;;;;;10.73;7.87;;;6.20;99.90;;;;;;5029863;28;20197;-68
2024/02/13 06:40:43;;;;;;;10.30;8.03;;;6.20;99.90;;;;;;5027431;28;20189;-65
2024/02/13 06:43:08;;;;;;;10.83;7.30;;;6.20;99.90;;;;;;5030986;28;21123;-69
2024/02/13 06:45:34;;;;;;;11.30;7.20;;;6.30;99.90;;;;;;5027984;28;20586;-68
2024/02/13 06:48:01;;;;;;;9.43;7.37;;;6.30;99.90;;;;;;5030318;28;20201;-68
2024/02/13 06:50:26;;;;;;;10.80;8.00;;;6.30;99.90;;;;;;5030902;28;20436;-70
2024/02/13 06:52:54;;;;;;;9.70;7.57;;;6.30;99.90;;;;;;5029902;28;20443;-67
2024/02/13 06:55:20;;;;;;;8.33;6.67;;;6.30;99.90;;;;;;5026101;28;20959;-71
2024/02/13 06:57:46;;;;;;;8.43;6.73;;;6.30;99.90;;;;;;5021997;28;20437;-68
2024/02/13 07:00:13;;;;;;;11.10;7.10;;;6.30;99.90;;;;;;5023651;28;20778;-67
2024/02/13 07:02:40;;;;;;;13.17;7.10;;;6.30;99.90;;;;;;5023647;28;20446;-69
2024/02/13 07:05:06;;;;;;;12.37;7.00;;;6.30;99.90;;;;;;5027306;28;20484;-69
2024/02/13 07:07:32;;;;;;;10.47;7.17;;;6.30;99.90;;;;;;5028837;28;20428;-69
2024/02/13 07:09:57;;;;;;;12.47;6.53;;;6.30;99.90;;;;;;5029596;28;20438;-69
2024/02/13 07:12:23;;;;;;;9.60;6.10;;;6.30;99.90;;;;;;5030880;28;20928;-69
2024/02/13 07:14:50;;;;;;;8.60;6.77;;;6.30;99.90;;;;;;5030620;28;20617;-70
2024/02/13 07:17:16;;;;;;;11.10;6.47;;;6.30;99.90;;;;;;5030852;28;20862;-66
2024/02/13 07:19:42;;;;;;;14.63;6.30;;;6.30;99.90;;;;;;5030427;28;20436;-67
2024/02/13 07:22:08;;;;;;;10.20;6.40;;;6.40;99.90;;;;;;5030565;28;20275;-68
2024/02/13 07:24:37;;;;;;;11.17;6.67;;;6.30;99.90;;;;;;5029746;28;20467;-69
2024/02/13 07:27:04;;;;;;;10.70;6.00;;;6.40;99.90;;;;;;5030041;28;20437;-70
2024/02/13 07:29:31;;;;;;;8.87;6.10;;;6.40;99.90;;;;;;5029614;28;20445;-68
2024/02/13 07:31:57;;;;;;;8.17;6.80;;;6.40;99.90;;;;;;5028395;28;20439;-71
2024/02/13 07:34:23;;;;;;;8.90;6.30;;;6.40;99.90;;;;;;5028533;28;20446;-72
2024/02/13 07:36:49;;;;;;;6.93;5.70;;;6.50;99.90;;;;;;5029373;28;20436;-71
2024/02/13 07:39:15;;;;;;;11.10;5.70;;;6.40;99.90;;;;;;5028366;28;20630;-69
2024/02/13 07:41:43;;;;;;;7.73;5.90;;;6.50;99.90;;;;;;5028357;28;20229;-67
2024/02/13 07:44:09;;;;;;;8.17;5.43;;;6.50;99.90;;;;;;5031742;28;20690;-72
2024/02/13 07:46:36;;;;;;;7.73;5.43;;;6.50;99.90;;;;;;5031651;28;20440;-70
2024/02/13 07:49:02;;;;;;;11.57;5.97;;;6.50;99.90;;;;;;5032389;28;20451;-70
2024/02/13 07:51:28;;;;;;;10.77;4.90;;;6.50;99.90;;;;;;5031282;28;20433;-71
2024/02/13 07:53:54;;;;;;;8.97;5.77;;;6.50;99.90;;;;;;5032476;28;20436;-69
2024/02/13 07:56:25;;;;;;;6.93;4.67;;;6.60;99.90;;;;;;5033389;28;20186;-68
2024/02/13 07:58:51;;;;;;;6.93;4.80;;;6.60;99.90;;;;;;5032094;28;21287;-69
2024/02/13 08:01:23;;;;;;;6.83;5.37;;;6.70;99.90;;;;;;5032790;28;20551;-68
2024/02/13 08:03:48;;;;;;;10.40;5.43;;;6.60;99.90;;;;;;5030973;28;20436;-66
2024/02/13 08:06:14;;;;;;;7.00;5.20;;;6.60;99.90;;;;;;5032981;28;20420;-68
2024/02/13 08:08:40;;;;;;;9.57;5.10;;;6.70;99.90;;;;;;5016909;28;20272;-68
2024/02/13 08:11:06;;;;;;;5.87;4.70;;;6.70;99.90;;;;;;5032791;28;20700;-70
2024/02/13 08:13:32;;;;;;;6.67;4.93;;;6.80;99.90;;;;;;5034105;28;20671;-71
2024/02/13 08:15:58;;;;;;;9.00;5.20;;;6.80;99.90;;;;;;5032620;28;20424;-71
2024/02/13 08:18:24;;;;;;;8.47;4.90;;;6.80;99.90;;;;;;5033963;28;20221;-72
2024/02/13 08:20:50;;;;;;;5.80;4.40;;;6.90;99.90;;;;;;5032265;28;21093;-67
2024/02/13 08:23:17;;;;;;;5.77;4.07;;;6.90;99.90;;;;;;5033299;28;20455;-66
2024/02/13 08:25:44;;;;;;;5.60;4.30;;;6.90;99.90;;;;;;5031710;28;20477;-67
2024/02/13 08:28:12;;;;;;;7.77;4.30;;;6.90;99.90;;;;;;5028409;28;20455;-70
2024/02/13 08:30:38;;;;;;;4.80;3.80;;;6.90;99.90;;;;;;5028919;28;20568;-70
2024/02/13 08:33:04;;;;;;;6.00;4.60;;;6.90;99.90;;;;;;5027515;28;20556;-72
2024/02/13 08:35:30;;;;;;;6.20;3.73;;;6.80;99.90;;;;;;5031259;28;20357;-71
2024/02/13 08:37:56;;;;;;;11.43;6.07;;;6.90;99.90;;;;;;5027082;28;20451;-70
2024/02/13 08:40:22;;;;;;;6.50;3.73;;;6.90;99.90;;;;;;5031121;28;21035;-68
2024/02/13 08:42:48;;;;;;;5.47;4.10;;;7.00;99.90;;;;;;5032106;28;20200;-66
2024/02/13 08:45:14;;;;;;;7.57;3.90;;;7.10;99.90;;;;;;5030453;28;20982;-69
2024/02/13 08:47:40;;;;;;;4.30;3.70;;;7.20;99.90;;;;;;5031176;28;20864;-71
2024/02/13 08:50:07;;;;;;;5.37;3.60;;;7.30;99.90;;;;;;5028330;28;21028;-68
2024/02/13 08:52:33;;;;;;;6.23;3.40;;;7.30;99.90;;;;;;5015047;28;20437;-72
2024/02/13 08:54:59;;;;;;;7.07;3.07;;;7.30;99.90;;;;;;5030201;28;21397;-72
2024/02/13 08:57:24;;;;;;;8.30;3.47;;;7.30;99.90;;;;;;5029977;28;20450;-71
2024/02/13 08:59:52;;;;;;;6.57;3.67;;;7.40;99.90;;;;;;5030794;28;21387;-69
2024/02/13 09:02:17;;;;;;;5.43;3.23;;;7.40;99.90;;;;;;5029974;28;20297;-70
2024/02/13 09:04:48;;;;;;;7.40;3.70;;;7.40;99.90;;;;;;5031489;28;20499;-66
2024/02/13 09:07:14;;;;;;;5.90;3.33;;;7.40;99.90;;;;;;5030384;28;20650;-67
2024/02/13 09:09:39;;;;;;;4.80;2.70;;;7.50;99.90;;;;;;5032694;28;20440;-70
2024/02/13 09:12:08;;;;;;;5.07;2.53;;;7.50;99.90;;;;;;5030753;28;20443;-70
2024/02/13 09:14:34;;;;;;;5.60;3.00;;;7.60;99.90;;;;;;5032135;28;20186;-72
2024/02/13 09:17:00;;;;;;;4.77;3.07;;;7.50;99.90;;;;;;5031280;28;20444;-67
2024/02/13 09:19:26;;;;;;;4.40;2.60;;;7.60;99.90;;;;;;5029426;28;20429;-72
2024/02/13 09:21:52;;;;;;;5.63;2.97;;;7.60;99.90;;;;;;5032094;28;20445;-66
2024/02/13 09:24:18;;;;;;;4.60;2.63;;;7.70;99.90;;;;;;5031087;28;20891;-68
2024/02/13 09:26:43;;;;;;;5.00;3.10;;;7.70;99.90;;;;;;5031517;28;20336;-71
2024/02/13 09:29:09;;;;;;;9.90;3.60;;;7.70;99.90;;;;;;5030314;28;20190;-67
2024/02/13 09:31:35;;;;;;;4.77;3.00;;;7.70;99.90;;;;;;5031121;28;20192;-67
2024/02/13 09:34:01;;;;;;;7.40;3.07;;;7.70;99.90;;;;;;5032008;28;20198;-67
2024/02/13 09:36:27;;;;;;;5.00;2.63;;;7.80;99.90;;;;;;5029911;28;20266;-69
2024/02/13 09:38:53;;;;;;;6.10;3.27;;;7.90;99.90;;;;;;5031774;28;20186;-66
2024/02/13 09:41:19;;;;;;;3.77;2.67;;;8.00;99.90;;;;;;5030282;28;20483;-70
2024/02/13 09:43:48;;;;;;;3.27;2.97;;;8.10;99.90;;;;;;5031171;28;20487;-68
2024/02/13 09:46:18;;;;;;;3.80;2.60;;;8.20;99.90;;;;;;5029547;28;20461;-69
2024/02/13 09:48:48;;;;;;;5.60;2.40;;;8.40;99.90;;;;;;5031244;28;20459;-71
2024/02/13 09:51:18;;;;;;;5.00;1.90;;;8.50;99.90;;;;;;5029891;28;20441;-66
2024/02/13 09:53:45;;;;;;;3.57;2.20;;;8.60;99.90;;;;;;5031174;28;20467;-68
2024/02/13 09:56:13;;;;;;;4.67;2.50;;;8.90;99.90;;;;;;5029002;28;20990;-66
2024/02/13 09:58:41;;;;;;;4.97;2.30;;;9.30;99.90;;;;;;5030747;28;20674;-66
2024/02/13 10:01:07;;;;;;;3.83;2.10;;;9.50;99.90;;;;;;5013274;28;20437;-65
2024/02/13 10:03:36;;;;;;;3.23;2.43;;;9.70;99.90;;;;;;5030462;28;21080;-69
2024/02/13 10:06:03;;;;;;;7.17;2.20;;;9.90;99.90;;;;;;5029885;28;20441;-70
2024/02/13 10:08:30;;;;;;;7.73;2.20;;;10.00;99.90;;;;;;5029753;28;20441;-73
2024/02/13 10:11:04;;;;;;;3.27;2.57;;;10.20;99.90;;;;;;5030075;28;20444;-67
2024/02/13 10:13:40;;;;;;;4.43;2.37;;;10.40;99.90;;;;;;5029873;28;20459;-69
2024/02/13 10:16:28;;;;;;;8.73;2.77;;;10.70;99.90;;;;;;5029932;28;20483;-70
2024/02/13 10:18:57;;;;;;;5.60;2.30;;;10.80;99.90;;;;;;5030539;28;20524;-68
2024/02/13 10:21:27;;;;;;;5.10;2.30;;;11.00;99.90;;;;;;5028730;28;20437;-71
2024/02/13 10:24:06;;;;;;;3.00;1.90;;;11.20;99.90;;;;;;5030016;28;20548;-73
2024/02/13 10:26:34;;;;;;;3.87;1.90;;;11.00;99.90;;;;;;5060903;28;20424;-70
2024/02/13 10:29:00;;;;;;;2.60;2.07;;;10.90;99.90;;;;;;5029076;28;20432;-65
2024/02/13 10:31:26;;;;;;;5.80;2.13;;;10.80;99.90;;;;;;5028829;28;20441;-71
2024/02/13 10:33:54;;;;;;;3.37;2.00;;;10.60;99.90;;;;;;5030264;28;20433;-66
2024/02/13 10:36:21;;;;;;;7.73;2.03;;;10.80;99.90;;;;;;5029501;28;20432;-67
2024/02/13 10:38:49;;;;;;;3.10;1.80;;;11.20;99.90;;;;;;5029535;28;20511;-67
2024/02/13 10:41:23;;;;;;;3.67;1.90;;;11.60;99.90;;;;;;5028814;28;21006;-69
2024/02/13 10:43:52;;;;;;;5.83;2.20;;;12.20;99.90;;;;;;5029987;28;20432;-66
2024/02/13 10:46:24;;;;;;;5.50;2.87;;;12.60;99.90;;;;;;5027843;28;20483;-73
2024/02/13 10:49:26;;;;;;;7.67;2.83;;;12.90;99.90;;;;;;5030629;28;20455;-72
2024/02/13 10:51:55;;;;;;;3.63;2.30;;;13.00;99.90;;;;;;5013919;28;20549;-70
2024/02/13 10:54:26;;;;;;;5.40;2.73;;;13.00;99.90;;;;;;5029392;28;20432;-70
2024/02/13 10:56:54;;;;;;;6.13;2.40;;;13.00;99.90;;;;;;5030171;28;21225;-67
2024/02/13 10:59:22;;;;;;;5.80;2.83;;;12.70;99.90;;;;;;5028807;28;20493;-69
2024/02/13 11:01:50;;;;;;;3.30;2.60;;;12.30;99.90;;;;;;5028792;28;21196;-67
2024/02/13 11:04:16;;;;;;;3.10;2.00;;;12.10;99.90;;;;;;5029226;28;20472;-66
2024/02/13 11:06:42;;;;;;;4.13;2.27;;;11.80;99.90;;;;;;5029274;28;20994;-70
2024/02/13 11:09:12;;;;;;;4.37;2.43;;;11.50;99.90;;;;;;5025503;28;20436;-65
2024/02/13 11:11:47;;;;;;;3.43;2.53;;;11.40;99.90;;;;;;5025442;28;20485;-69
2024/02/13 11:14:17;;;;;;;4.53;2.30;;;11.20;99.90;;;;;;5029714;28;20481;-68
2024/02/13 11:17:12;;;;;;;5.07;2.60;;;11.20;99.90;;;;;;5028910;28;20476;-67
2024/02/13 11:19:46;;;;;;;3.10;2.20;;;11.00;99.90;;;;;;5031453;28;20824;-65
2024/02/13 11:22:14;;;;;;;4.50;2.00;;;10.90;99.90;;;;;;5033575;28;20435;-69
2024/02/13 11:24:48;;;;;;;4.90;2.10;;;10.80;99.90;;;;;;5033196;28;20480;-70
2024/02/13 11:27:23;;;;;;;7.20;2.17;;;10.70;99.90;;;;;;5032277;28;20440;-70
2024/02/13 11:29:59;;;;;;;3.70;2.00;;;10.60;99.90;;;;;;5031558;28;20446;-64
2024/02/13 11:32:33;;;;;;;3.47;2.10;;;10.40;99.90;;;;;;5032228;28;20459;-71
2024/02/13 11:34:59;;;;;;;3.03;2.27;;;10.30;99.90;;;;;;5033460;28;20432;-72
2024/02/13 11:37:30;;;;;;;4.10;1.93;;;10.20;99.90;;;;;;5032354;28;20531;-69
2024/02/13 11:39:58;;;;;;;6.63;1.67;;;10.10;99.90;;;;;;5033550;28;20440;-72
2024/02/13 11:42:34;;;;;;;3.60;1.80;;;9.90;99.90;;;;;;5031705;28;20464;-72
2024/02/13 11:45:01;;;;;;;2.57;1.47;;;9.90;99.90;;;;;;5033344;28;20507;-72
2024/02/13 11:47:27;;;;;;;3.03;1.73;;;9.90;99.90;;;;;;5031713;28;20963;-69
2024/02/13 11:49:54;;;;;;;2.50;2.07;;;10.00;99.90;;;;;;5032895;28;20455;-72
2024/02/13 11:52:21;;;;;;;3.13;1.50;;;10.10;99.90;;;;;;5032348;28;20432;-71
2024/02/13 11:54:48;;;;;;;1.93;1.40;;;10.30;99.90;;;;;;5033717;28;20537;-65
2024/02/13 11:57:18;;;;;;;2.97;1.53;;;10.50;99.90;;;;;;5032479;28;20556;-66
2024/02/13 11:59:58;;;;;;;3.70;2.13;;;10.70;99.90;;;;;;5033230;28;20428;-65
2024/02/13 12:02:24;;;;;;;2.63;1.33;;;10.80;99.90;;;;;;5031254;28;21046;-70
2024/02/13 12:04:49;;;;;;;4.80;1.87;;;11.00;99.90;;;;;;5032575;28;20829;-72
2024/02/13 12:07:16;;;;;;;6.47;1.60;;;11.20;99.90;;;;;;5031767;28;20425;-73
2024/02/13 12:09:44;;;;;;;3.37;1.80;;;11.30;99.90;;;;;;5032627;28;20177;-71
2024/02/13 12:12:12;;;;;;;5.27;1.63;;;11.40;99.90;;;;;;5032155;28;20424;-68
2024/02/13 12:14:39;;;;;;;2.60;1.30;;;11.60;99.90;;;;;;5015904;28;20436;-65
2024/02/13 12:17:10;;;;;;;2.80;1.40;;;11.80;99.90;;;;;;5032348;28;20440;-69
2024/02/13 12:19:39;;;;;;;3.43;1.50;;;11.80;99.90;;;;;;5031952;28;20479;-67
2024/02/13 12:22:10;;;;;;;15.53;2.17;;;11.90;99.90;;;;;;5032278;28;20424;-67
2024/02/13 12:24:44;;;;;;;4.37;1.87;;;11.90;99.90;;;;;;5062974;28;20464;-67
2024/02/13 12:27:10;;;;;;;1.83;1.37;;;11.90;99.90;;;;;;5031845;28;20462;-70
2024/02/13 12:29:39;;;;;;;2.43;1.50;;;11.90;99.90;;;;;;5028979;28;20436;-64
2024/02/13 12:32:09;;;;;;;3.60;1.43;;;11.70;99.90;;;;;;5030878;28;20429;-65
2024/02/13 12:34:38;;;;;;;4.10;1.23;;;11.70;99.90;;;;;;5032354;28;20437;-66
2024/02/13 12:37:08;;;;;;;3.60;1.47;;;11.80;99.90;;;;;;5032604;28;20441;-69
2024/02/13 12:39:36;;;;;;;2.03;1.00;;;11.80;99.90;;;;;;5031808;28;20422;-67
2024/02/13 12:42:10;;;;;;;3.33;1.20;;;11.80;99.90;;;;;;5032891;28;20456;-64
2024/02/13 12:44:40;;;;;;;6.30;1.37;;;11.80;99.90;;;;;;5030732;28;20501;-67
2024/02/13 12:47:07;;;;;;;3.27;1.00;;;11.80;99.90;;;;;;5030807;28;20510;-68
2024/02/13 12:49:38;;;;;;;8.73;2.13;;;11.80;99.90;;;;;;5031878;28;20417;-69